Terminal Aerodrome Forecast
Issued by NWS

Home | Current Version | Previous Version | Text Only | Print | Product List | Glossary On
Versions: 1 2 3 4 5 6 7 8 9 10 11 12 13
992
FTUS43 KIND 311120
TAFHUF
TAF
KHUF 311120Z 3112/0112 VRB03KT P6SM BKN250
     FM311500 15006KT P6SM SCT100 BKN200
     FM010300 11002KT P6SM FEW060 BKN150=

USA.gov is the U.S. government's official web portal to all federal, state and local government web resources and services.